Time;durP1;ratioP1;P1;durP2;ratioP2;P2;SDS_P1;SDS_P2;PMS_P1;PMS_P2;Temp;Humidity;BMP_temperature;BMP_pressure;BME280_temperature;BME280_humidity;BME280_pressure;Samples;Min_cycle;Max_cycle;Signal;HPM_P1;HPM_P2
2021/08/22 00:03:32;;;;;;;7.57;6.85;;;27.80;45.00;;;;;;4308480;61;21145;-28
2021/08/22 00:08:38;;;;;;;6.80;6.20;;;27.90;45.10;;;;;;4310569;61;21511;-25
2021/08/22 00:13:39;;;;;;;7.20;6.50;;;27.80;45.10;;;;;;4298146;60;21191;-27
2021/08/22 00:18:40;;;;;;;6.85;6.22;;;27.80;45.10;;;;;;4312498;61;21113;-31
2021/08/22 00:23:40;;;;;;;8.05;6.60;;;27.80;45.10;;;;;;4330422;61;21555;-27
2021/08/22 00:28:41;;;;;;;7.03;6.30;;;27.80;45.10;;;;;;4328117;61;21546;-29
2021/08/22 00:33:42;;;;;;;7.07;6.37;;;27.80;45.30;;;;;;4312396;61;21129;-28
2021/08/22 00:38:48;;;;;;;7.50;6.70;;;27.80;45.20;;;;;;4300865;61;21081;-28
2021/08/22 00:43:49;;;;;;;7.10;6.10;;;27.80;45.30;;;;;;4306225;61;21586;-30
2021/08/22 00:48:50;;;;;;;6.60;6.00;;;27.80;45.20;;;;;;4295091;65;21138;-28
2021/08/22 00:53:50;;;;;;;6.62;6.03;;;27.80;45.20;;;;;;4329492;61;21069;-25
2021/08/22 00:58:51;;;;;;;7.07;6.37;;;27.80;45.20;;;;;;4295744;65;21085;-29
2021/08/22 01:07:27;;;;;;;7.35;6.12;;;27.80;45.20;;;;;;4312629;61;21072;-29
2021/08/22 01:12:43;;;;;;;6.28;5.68;;;27.80;45.90;;;;;;4313678;60;21064;-27
2021/08/22 01:17:47;;;;;;;6.50;5.90;;;27.80;45.30;;;;;;4321651;60;21076;-24
2021/08/22 01:22:50;;;;;;;6.12;5.62;;;27.80;45.20;;;;;;4309158;60;21080;-23
2021/08/22 01:27:53;;;;;;;6.25;5.65;;;27.80;45.40;;;;;;4329129;60;21165;-28
2021/08/22 01:32:54;;;;;;;6.20;5.62;;;27.80;45.30;;;;;;4312643;61;21116;-28
2021/08/22 01:37:55;;;;;;;6.43;5.82;;;27.80;45.30;;;;;;4303922;60;21061;-23
2021/08/22 01:42:56;;;;;;;7.00;5.57;;;27.80;45.40;;;;;;4303559;61;21574;-25
2021/08/22 01:47:58;;;;;;;5.72;5.12;;;27.80;45.40;;;;;;4295716;65;21048;-28
2021/08/22 01:53:04;;;;;;;5.50;5.00;;;27.80;45.30;;;;;;4298788;60;21129;-29
2021/08/22 01:58:06;;;;;;;6.18;5.68;;;27.80;45.30;;;;;;4311320;60;21113;-31
2021/08/22 02:03:17;;;;;;;6.03;5.43;;;27.80;45.40;;;;;;4296368;64;21136;-33
2021/08/22 02:08:21;;;;;;;6.15;5.55;;;27.80;45.40;;;;;;4335702;60;21779;-30
2021/08/22 02:13:27;;;;;;;5.93;5.32;;;27.80;45.50;;;;;;4312766;60;21064;-28
2021/08/22 02:18:30;;;;;;;6.27;5.67;;;27.80;45.40;;;;;;4309498;60;21065;-25
2021/08/22 02:23:31;;;;;;;5.87;5.37;;;27.80;45.50;;;;;;4337226;60;21157;-22
2021/08/22 02:28:33;;;;;;;6.05;5.53;;;27.70;45.40;;;;;;4313634;60;21065;-23
2021/08/22 02:33:34;;;;;;;6.12;5.32;;;27.70;45.40;;;;;;4315725;61;21171;-28
2021/08/22 02:38:35;;;;;;;6.10;5.50;;;27.80;45.50;;;;;;4313973;61;21551;-23
2021/08/22 02:43:35;;;;;;;6.03;5.40;;;27.70;45.50;;;;;;4320598;61;21583;-24
2021/08/22 02:48:36;;;;;;;6.18;5.50;;;27.70;45.50;;;;;;4332491;61;21065;-31
2021/08/22 02:53:37;;;;;;;5.90;5.30;;;27.70;45.50;;;;;;4320339;61;21057;-23
2021/08/22 02:58:41;;;;;;;5.82;5.32;;;27.80;45.40;;;;;;4303781;61;21065;-25
2021/08/22 03:03:41;;;;;;;5.82;5.32;;;27.70;45.50;;;;;;4295544;65;21148;-26
2021/08/22 03:08:42;;;;;;;5.85;5.25;;;27.70;45.50;;;;;;4327067;61;21133;-25
2021/08/22 03:13:44;;;;;;;6.15;5.37;;;27.70;45.50;;;;;;4295711;65;21053;-27
2021/08/22 03:18:45;;;;;;;5.75;5.25;;;27.70;45.50;;;;;;4315756;60;21081;-30
2021/08/22 03:23:45;;;;;;;6.12;5.10;;;27.70;45.50;;;;;;4308010;61;21507;-28
2021/08/22 03:28:46;;;;;;;5.62;5.12;;;27.70;45.50;;;;;;4301001;61;21621;-28
2021/08/22 03:33:47;;;;;;;5.87;5.28;;;27.70;45.50;;;;;;4335326;61;21097;-21
2021/08/22 03:38:48;;;;;;;5.72;5.22;;;27.70;45.50;;;;;;4295822;61;21118;-28
2021/08/22 03:43:49;;;;;;;5.50;5.00;;;27.70;45.60;;;;;;4302048;61;21100;-21
2021/08/22 03:48:49;;;;;;;5.82;5.32;;;27.70;45.50;;;;;;4334704;61;21147;-22
2021/08/22 03:53:50;;;;;;;5.57;5.07;;;27.70;45.60;;;;;;4309924;61;21068;-22
2021/08/22 03:58:51;;;;;;;5.47;4.97;;;27.70;45.50;;;;;;4306580;61;22623;-25
2021/08/22 04:03:52;;;;;;;5.68;5.07;;;27.60;45.40;;;;;;4297957;61;22145;-28
2021/08/22 04:08:54;;;;;;;5.37;4.87;;;27.60;45.40;;;;;;4315736;61;21061;-28
2021/08/22 04:13:55;;;;;;;5.65;5.03;;;27.70;45.40;;;;;;4304240;61;21563;-22
2021/08/22 04:18:56;;;;;;;5.10;4.60;;;27.60;45.40;;;;;;4310935;61;21065;-21
2021/08/22 04:23:58;;;;;;;5.53;5.03;;;27.60;45.40;;;;;;4296224;61;21539;-26
2021/08/22 04:29:02;;;;;;;5.40;4.90;;;27.60;45.40;;;;;;4320835;60;21053;-22
2021/08/22 04:34:03;;;;;;;5.30;4.80;;;27.60;45.40;;;;;;4298707;61;21857;-25
2021/08/22 04:39:04;;;;;;;5.70;4.60;;;27.60;45.40;;;;;;4335069;61;21133;-28
2021/08/22 04:44:05;;;;;;;5.12;4.62;;;27.60;45.40;;;;;;4332393;61;21096;-29
2021/08/22 04:49:06;;;;;;;5.35;4.85;;;27.60;45.30;;;;;;4296466;65;21539;-28
2021/08/22 04:54:07;;;;;;;5.30;4.80;;;27.60;45.30;;;;;;4295559;65;21073;-20
2021/08/22 04:59:09;;;;;;;5.53;5.03;;;27.60;45.30;;;;;;4298994;61;21053;-26
2021/08/22 05:04:09;;;;;;;5.47;4.97;;;27.60;45.30;;;;;;4311218;60;21080;-28
2021/08/22 05:09:10;;;;;;;5.47;4.97;;;27.60;45.30;;;;;;4335915;61;21570;-28
2021/08/22 05:14:11;;;;;;;6.22;5.05;;;27.60;45.30;;;;;;4310976;61;21114;-27
2021/08/22 05:19:12;;;;;;;5.78;5.28;;;27.50;45.30;;;;;;4300439;61;21548;-28
2021/08/22 05:24:13;;;;;;;5.43;4.93;;;27.60;45.30;;;;;;4308649;61;21081;-30
2021/08/22 05:29:14;;;;;;;5.85;5.05;;;27.50;45.20;;;;;;4313158;61;21068;-29
2021/08/22 05:34:15;;;;;;;5.93;5.30;;;27.60;45.30;;;;;;4312253;60;21060;-28
2021/08/22 05:39:15;;;;;;;5.62;5.12;;;27.50;45.20;;;;;;4303123;61;21166;-24
2021/08/22 05:44:16;;;;;;;5.65;5.15;;;27.50;45.20;;;;;;4299172;61;21593;-29
2021/08/22 05:49:17;;;;;;;6.50;5.05;;;27.50;45.20;;;;;;4347204;61;21126;-28
2021/08/22 05:54:18;;;;;;;6.75;5.53;;;27.50;45.20;;;;;;4347666;61;21317;-27
2021/08/22 05:59:19;;;;;;;5.87;5.20;;;27.50;45.20;;;;;;4314296;61;21153;-25
2021/08/22 06:04:19;;;;;;;5.47;4.97;;;27.50;45.20;;;;;;4296058;65;21145;-28
2021/08/22 06:09:23;;;;;;;5.50;5.00;;;27.50;45.20;;;;;;4308540;61;21082;-28
2021/08/22 06:14:24;;;;;;;6.22;5.62;;;27.50;45.20;;;;;;4299089;60;21068;-32
2021/08/22 06:19:24;;;;;;;5.72;5.12;;;27.50;45.30;;;;;;4295483;61;21166;-28
2021/08/22 06:24:25;;;;;;;5.60;5.00;;;27.50;45.20;;;;;;4299014;61;21627;-29
2021/08/22 06:29:26;;;;;;;6.40;5.43;;;27.50;45.30;;;;;;4295559;62;21053;-28
2021/08/22 06:34:27;;;;;;;6.10;5.43;;;27.50;45.20;;;;;;4295136;65;21141;-26
2021/08/22 06:39:28;;;;;;;5.82;5.05;;;27.50;45.30;;;;;;4313719;61;21052;-28
2021/08/22 06:44:29;;;;;;;5.35;4.85;;;27.50;45.30;;;;;;4313610;61;21606;-26
2021/08/22 06:49:30;;;;;;;5.75;5.25;;;27.50;45.30;;;;;;4295581;65;21068;-31
2021/08/22 06:54:31;;;;;;;6.47;5.30;;;27.50;45.30;;;;;;4320737;61;21132;-27
2021/08/22 06:59:31;;;;;;;5.53;4.97;;;27.50;45.30;;;;;;4303993;60;21121;-26
2021/08/22 07:04:32;;;;;;;5.55;5.00;;;27.50;45.40;;;;;;4299582;61;21084;-29
2021/08/22 07:09:33;;;;;;;6.62;4.90;;;27.50;45.40;;;;;;4312134;61;21554;-29
2021/08/22 07:14:34;;;;;;;6.20;5.50;;;27.50;45.40;;;;;;4306997;61;21085;-28
2021/08/22 07:19:36;;;;;;;5.32;4.82;;;27.50;45.40;;;;;;4300764;61;21619;-24
2021/08/22 07:24:37;;;;;;;5.85;5.35;;;27.50;45.40;;;;;;4311665;61;22223;-33
2021/08/22 07:29:38;;;;;;;5.90;5.40;;;27.50;45.40;;;;;;4316077;61;21104;-32
2021/08/22 07:34:40;;;;;;;6.12;5.53;;;27.50;45.50;;;;;;4298988;60;21057;-26
2021/08/22 07:39:40;;;;;;;6.60;5.55;;;27.50;45.40;;;;;;4311320;61;21069;-29
2021/08/22 07:44:41;;;;;;;6.25;5.57;;;27.40;45.40;;;;;;4310674;61;21092;-26
2021/08/22 07:49:42;;;;;;;7.07;5.87;;;27.50;45.50;;;;;;4313107;61;21546;-29
2021/08/22 07:54:43;;;;;;;8.57;6.20;;;27.50;45.50;;;;;;4296379;65;21580;-28
2021/08/22 07:59:44;;;;;;;7.70;6.90;;;27.50;45.50;;;;;;4306905;61;21105;-26
2021/08/22 08:04:45;;;;;;;7.95;6.62;;;27.50;45.60;;;;;;4343703;61;21582;-28
2021/08/22 08:09:46;;;;;;;7.20;6.45;;;27.40;45.50;;;;;;4319714;61;21072;-30
2021/08/22 08:14:47;;;;;;;8.50;6.50;;;27.50;46.30;;;;;;4307165;61;21049;-28
2021/08/22 08:19:47;;;;;;;7.12;6.40;;;27.50;45.50;;;;;;4306073;61;21077;-27
2021/08/22 08:24:48;;;;;;;7.87;6.80;;;27.50;45.60;;;;;;4313142;61;21056;-27
2021/08/22 08:29:50;;;;;;;7.62;6.82;;;27.50;45.60;;;;;;4295969;61;21139;-27
2021/08/22 08:34:51;;;;;;;8.43;7.28;;;27.40;45.50;;;;;;4300667;60;21049;-25
2021/08/22 08:39:52;;;;;;;8.88;7.00;;;27.50;45.60;;;;;;4305349;61;21065;-29
2021/08/22 08:44:54;;;;;;;8.05;6.87;;;27.50;45.60;;;;;;4305921;61;21764;-26
2021/08/22 08:50:46;;;;;;;8.25;7.40;;;27.40;45.60;;;;;;4312233;61;21602;-32
2021/08/22 08:56:04;;;;;;;8.07;7.28;;;27.50;45.70;;;;;;4307743;60;21061;-26
2021/08/22 09:01:05;;;;;;;8.43;7.32;;;27.40;45.60;;;;;;4300676;60;21052;-30
2021/08/22 09:09:56;;;;;;;8.32;7.50;;;27.50;46.30;;;;;;4310407;61;21097;-30
2021/08/22 09:15:34;;;;;;;9.23;7.12;;;27.40;45.60;;;;;;4296510;61;21076;-30
2021/08/22 09:21:37;;;;;;;8.95;7.57;;;27.50;45.70;;;;;;4343039;61;21540;-29
2021/08/22 09:34:51;;;;;;;7.65;6.85;;;27.50;45.70;;;;;;4295513;61;21566;-30
2021/08/22 09:40:31;;;;;;;8.32;7.43;;;27.50;45.70;;;;;;4314396;60;21134;-31
2021/08/22 09:46:09;;;;;;;7.65;6.90;;;27.50;45.70;;;;;;4301446;61;21108;-32
2021/08/22 09:54:05;;;;;;;7.90;7.05;;;27.40;45.70;;;;;;4332886;61;21116;-25
2021/08/22 10:03:47;;;;;;;8.10;7.30;;;27.50;45.80;;;;;;4307596;61;21077;-28
2021/08/22 10:09:21;;;;;;;8.13;7.30;;;27.50;45.90;;;;;;4309782;60;21057;-28
2021/08/22 10:14:23;;;;;;;7.72;6.70;;;27.50;45.80;;;;;;4297797;60;21052;-31
2021/08/22 10:19:27;;;;;;;7.20;6.35;;;27.50;45.80;;;;;;4306428;60;21076;-31
2021/08/22 10:25:47;;;;;;;8.13;7.32;;;27.50;45.80;;;;;;4295516;65;21629;-30
2021/08/22 10:30:48;;;;;;;7.70;6.95;;;27.50;45.80;;;;;;4326148;60;21543;-28
2021/08/22 10:35:49;;;;;;;8.55;7.10;;;27.50;45.90;;;;;;4298250;61;21114;-29
2021/08/22 10:40:51;;;;;;;8.38;7.40;;;27.50;45.80;;;;;;4355816;61;21196;-25
2021/08/22 10:45:53;;;;;;;6.57;5.95;;;27.50;45.80;;;;;;4303766;60;21088;-30
2021/08/22 10:51:12;;;;;;;8.00;7.20;;;27.50;45.80;;;;;;4296888;61;21106;-31
2021/08/22 10:57:49;;;;;;;7.87;7.05;;;27.50;45.80;;;;;;4320946;61;21491;-29
2021/08/22 11:02:50;;;;;;;8.43;7.30;;;27.50;45.80;;;;;;4297154;60;21146;-28
2021/08/22 11:07:53;;;;;;;8.27;7.28;;;27.50;45.80;;;;;;4330431;61;21138;-30
2021/08/22 11:12:55;;;;;;;7.62;6.85;;;27.50;45.80;;;;;;4312866;60;21523;-28
2021/08/22 11:17:58;;;;;;;7.35;6.65;;;27.50;45.80;;;;;;4301380;61;21045;-30
2021/08/22 11:23:16;;;;;;;7.75;7.05;;;27.50;45.80;;;;;;4321130;60;21072;-29
2021/08/22 11:28:19;;;;;;;7.45;6.65;;;27.50;45.80;;;;;;4300550;60;21638;-29
2021/08/22 11:33:20;;;;;;;7.68;6.87;;;27.50;45.80;;;;;;4297902;60;21114;-28
2021/08/22 11:38:21;;;;;;;7.95;7.15;;;27.50;45.80;;;;;;4308779;61;21057;-29
2021/08/22 11:43:22;;;;;;;7.72;6.80;;;27.50;45.70;;;;;;4298930;61;21575;-29
2021/08/22 11:48:24;;;;;;;7.95;7.10;;;27.60;45.80;;;;;;4314804;61;21116;-28
2021/08/22 11:53:29;;;;;;;7.90;6.70;;;27.50;45.70;;;;;;4339977;60;21539;-29
2021/08/22 11:58:34;;;;;;;8.00;7.20;;;27.50;45.70;;;;;;4296637;65;21619;-27
2021/08/22 12:03:35;;;;;;;7.40;6.70;;;27.50;45.70;;;;;;4332372;61;21618;-29
2021/08/22 12:08:36;;;;;;;8.05;7.30;;;27.50;46.20;;;;;;4303407;60;21200;-28
2021/08/22 12:13:46;;;;;;;7.68;6.97;;;27.50;45.70;;;;;;4296417;61;21081;-29
2021/08/22 12:18:47;;;;;;;8.25;7.45;;;27.50;45.70;;;;;;4297208;61;21060;-28
2021/08/22 12:23:50;;;;;;;7.57;6.87;;;27.50;45.70;;;;;;4297770;61;21522;-34
2021/08/22 12:28:58;;;;;;;7.45;6.75;;;27.50;45.70;;;;;;4295418;65;21105;-27
2021/08/22 12:34:05;;;;;;;7.65;6.95;;;27.60;45.70;;;;;;4319611;60;21087;-30
2021/08/22 12:39:09;;;;;;;8.90;8.00;;;27.50;45.60;;;;;;4296377;65;21128;-29
2021/08/22 12:44:24;;;;;;;8.60;7.30;;;27.50;45.60;;;;;;4315691;60;21607;-29
2021/08/22 12:49:26;;;;;;;7.70;7.00;;;27.50;45.50;;;;;;4299149;60;21114;-29
2021/08/22 12:54:29;;;;;;;7.32;6.72;;;27.60;45.60;;;;;;4309233;60;21197;-29
2021/08/22 12:59:30;;;;;;;8.15;7.35;;;27.60;45.50;;;;;;4346008;60;21057;-22
2021/08/22 13:04:31;;;;;;;7.12;6.43;;;27.60;45.50;;;;;;4300383;60;21180;-25
2021/08/22 13:09:31;;;;;;;7.82;7.03;;;27.60;45.50;;;;;;4295956;65;21056;-27
2021/08/22 13:14:32;;;;;;;8.52;7.68;;;27.60;45.50;;;;;;4334242;61;21550;-33
2021/08/22 13:19:33;;;;;;;7.47;6.82;;;27.60;45.50;;;;;;4296761;61;21546;-25
2021/08/22 13:24:34;;;;;;;7.97;7.25;;;27.60;45.50;;;;;;4296340;65;21145;-30
2021/08/22 13:29:34;;;;;;;7.80;7.10;;;27.60;44.90;;;;;;4296656;61;21064;-30
2021/08/22 13:34:38;;;;;;;7.82;7.10;;;27.60;45.50;;;;;;4319753;61;21096;-29
2021/08/22 13:39:39;;;;;;;7.53;6.82;;;27.60;45.50;;;;;;4312235;60;21563;-26
2021/08/22 13:44:40;;;;;;;8.35;7.22;;;27.60;45.40;;;;;;4315846;61;21073;-24
2021/08/22 13:49:43;;;;;;;7.80;7.05;;;27.60;45.40;;;;;;4315816;60;21057;-24
2021/08/22 13:54:45;;;;;;;7.90;7.20;;;27.60;45.40;;;;;;4311472;61;21631;-25
2021/08/22 13:59:46;;;;;;;7.68;6.97;;;27.60;45.40;;;;;;4302015;61;21506;-29
2021/08/22 14:04:47;;;;;;;8.05;7.25;;;27.60;45.40;;;;;;4296305;65;21108;-28
2021/08/22 14:09:48;;;;;;;8.10;7.30;;;27.60;45.30;;;;;;4295624;65;21116;-30
2021/08/22 14:14:49;;;;;;;7.37;6.68;;;27.60;45.30;;;;;;4301707;60;21109;-27
2021/08/22 14:19:50;;;;;;;8.07;7.28;;;27.60;45.30;;;;;;4312000;61;21057;-29
2021/08/22 14:24:51;;;;;;;7.43;6.80;;;27.60;45.30;;;;;;4334524;61;21122;-31
2021/08/22 14:29:52;;;;;;;8.07;7.35;;;27.60;45.30;;;;;;4302721;60;21065;-25
2021/08/22 14:34:53;;;;;;;8.05;7.28;;;27.60;45.20;;;;;;4336439;61;21638;-27
2021/08/22 14:39:54;;;;;;;7.47;6.78;;;27.60;45.20;;;;;;4299755;61;21065;-27
2021/08/22 14:44:55;;;;;;;7.47;6.72;;;27.60;45.10;;;;;;4307700;61;21535;-23
2021/08/22 14:49:56;;;;;;;8.02;7.22;;;27.60;45.10;;;;;;4297765;61;21265;-27
2021/08/22 14:54:57;;;;;;;8.13;7.32;;;27.60;45.10;;;;;;4319342;61;21057;-26
2021/08/22 14:59:58;;;;;;;8.18;7.37;;;27.60;45.10;;;;;;4299178;60;21041;-28
2021/08/22 15:05:00;;;;;;;7.82;7.03;;;27.60;45.10;;;;;;4310671;61;21087;-26
2021/08/22 15:10:01;;;;;;;7.60;6.90;;;27.70;45.10;;;;;;4312932;60;21037;-27
2021/08/22 15:15:02;;;;;;;7.95;7.25;;;27.70;45.10;;;;;;4328312;61;21122;-30
2021/08/22 15:20:04;;;;;;;7.57;6.85;;;27.60;45.00;;;;;;4296468;60;21085;-28
2021/08/22 15:25:06;;;;;;;7.82;7.12;;;27.70;45.10;;;;;;4317417;60;21183;-32
2021/08/22 15:30:08;;;;;;;8.00;7.20;;;27.70;45.00;;;;;;4309249;60;21073;-29
2021/08/22 15:35:09;;;;;;;8.63;7.80;;;27.70;45.00;;;;;;4309889;60;21085;-32
2021/08/22 15:40:13;;;;;;;8.65;7.75;;;27.70;45.00;;;;;;4295398;65;22271;-25
2021/08/22 15:45:14;;;;;;;7.37;6.68;;;27.70;45.00;;;;;;4305472;60;21601;-29
2021/08/22 15:50:15;;;;;;;8.02;7.30;;;27.70;45.00;;;;;;4296169;65;21105;-30
2021/08/22 15:55:16;;;;;;;8.20;7.40;;;27.70;44.90;;;;;;4304896;61;21064;-26
2021/08/22 16:00:17;;;;;;;8.07;7.28;;;27.70;44.90;;;;;;4333114;61;21672;-27
2021/08/22 16:05:19;;;;;;;7.72;7.03;;;27.70;44.90;;;;;;4295997;65;21085;-32
2021/08/22 16:10:21;;;;;;;7.87;7.07;;;27.70;44.90;;;;;;4306014;61;21558;-26
2021/08/22 16:15:22;;;;;;;7.93;7.22;;;27.70;44.90;;;;;;4335451;60;21596;-31
2021/08/22 16:20:23;;;;;;;7.93;7.15;;;27.70;44.90;;;;;;4296680;62;21105;-35
2021/08/22 16:25:24;;;;;;;7.00;6.40;;;27.70;44.90;;;;;;4344829;61;21072;-32
2021/08/22 16:30:25;;;;;;;7.75;7.00;;;27.70;44.80;;;;;;4307342;61;21623;-31
2021/08/22 16:35:26;;;;;;;8.25;7.45;;;27.70;44.80;;;;;;4315273;60;21144;-29
2021/08/22 16:40:27;;;;;;;7.62;6.93;;;27.70;44.80;;;;;;4308997;61;21655;-31
2021/08/22 16:45:28;;;;;;;8.13;7.43;;;27.70;44.80;;;;;;4295411;65;21076;-32
2021/08/22 16:50:29;;;;;;;7.50;6.80;;;27.70;44.80;;;;;;4304800;61;21108;-29
2021/08/22 16:55:30;;;;;;;7.62;6.82;;;27.70;44.80;;;;;;4304351;61;21101;-29
2021/08/22 17:00:31;;;;;;;7.68;6.97;;;27.70;44.80;;;;;;4314078;61;21467;-32
2021/08/22 17:05:32;;;;;;;8.23;7.43;;;27.70;44.70;;;;;;4317352;60;21081;-31
2021/08/22 17:10:33;;;;;;;7.87;7.07;;;27.80;44.80;;;;;;4328021;61;21096;-24
2021/08/22 17:15:34;;;;;;;7.37;6.68;;;27.70;44.70;;;;;;4319506;61;21064;-27
2021/08/22 17:20:38;;;;;;;7.60;6.90;;;27.70;44.70;;;;;;4299033;61;21040;-27
2021/08/22 17:25:40;;;;;;;7.37;6.78;;;27.70;44.70;;;;;;4295679;65;21159;-29
2021/08/22 17:30:41;;;;;;;7.32;6.62;;;27.80;44.70;;;;;;4295851;65;21106;-31
2021/08/22 17:35:42;;;;;;;7.32;6.72;;;27.70;44.70;;;;;;4330347;61;21068;-26
2021/08/22 17:40:43;;;;;;;7.82;7.12;;;27.80;44.70;;;;;;4296773;61;21124;-31
2021/08/22 17:45:44;;;;;;;7.57;6.90;;;27.80;44.70;;;;;;4318315;61;21073;-30
2021/08/22 17:50:45;;;;;;;7.60;6.85;;;27.80;44.70;;;;;;4299868;60;21098;-25
2021/08/22 17:55:46;;;;;;;7.55;6.75;;;27.80;44.70;;;;;;4319646;61;21534;-32
2021/08/22 18:00:47;;;;;;;8.02;7.22;;;27.80;44.70;;;;;;4321752;60;21113;-32
2021/08/22 18:05:49;;;;;;;7.55;6.85;;;27.80;44.70;;;;;;4360008;61;21080;-26
2021/08/22 18:10:50;;;;;;;7.35;6.65;;;27.80;44.80;;;;;;4295902;64;21149;-23
2021/08/22 18:15:50;;;;;;;7.87;7.18;;;27.80;44.80;;;;;;4295851;65;21518;-33
2021/08/22 18:20:52;;;;;;;7.07;6.47;;;27.80;44.80;;;;;;4305092;61;21045;-29
2021/08/22 18:25:53;;;;;;;7.15;6.55;;;27.80;44.80;;;;;;4320294;61;21146;-27
2021/08/22 18:30:55;;;;;;;7.40;6.70;;;27.80;44.80;;;;;;4309901;61;21592;-30
2021/08/22 18:35:56;;;;;;;8.15;6.97;;;27.80;44.80;;;;;;4301193;60;21185;-29
2021/08/22 18:40:57;;;;;;;7.40;6.70;;;27.80;44.80;;;;;;4310163;61;21149;-29
2021/08/22 18:45:58;;;;;;;7.82;7.03;;;27.80;44.80;;;;;;4295811;61;21620;-25
2021/08/22 18:51:00;;;;;;;7.60;6.90;;;27.80;44.80;;;;;;4305244;61;21061;-29
2021/08/22 18:56:04;;;;;;;8.05;7.25;;;27.80;44.80;;;;;;4298107;60;21101;-24
2021/08/22 19:01:04;;;;;;;7.35;6.65;;;27.80;44.70;;;;;;4311313;61;21116;-25
2021/08/22 19:06:05;;;;;;;7.50;6.80;;;27.80;44.80;;;;;;4324431;61;21121;-25
2021/08/22 19:11:10;;;;;;;7.43;6.72;;;27.80;44.70;;;;;;4313963;61;21077;-27
2021/08/22 19:16:10;;;;;;;7.65;6.95;;;27.80;44.70;;;;;;4295789;65;22058;-28
2021/08/22 19:21:12;;;;;;;7.35;6.65;;;27.80;44.80;;;;;;4330785;61;21097;-28
2021/08/22 19:26:14;;;;;;;7.37;6.62;;;27.80;44.70;;;;;;4316304;61;22444;-31
2021/08/22 19:31:17;;;;;;;8.02;7.07;;;27.80;44.70;;;;;;4363817;60;21156;-31
2021/08/22 19:36:18;;;;;;;7.50;6.80;;;27.80;44.70;;;;;;4296045;61;21626;-31
2021/08/22 19:41:19;;;;;;;7.57;6.87;;;27.80;44.70;;;;;;4296400;60;21077;-24
2021/08/22 19:46:20;;;;;;;8.63;7.72;;;27.80;44.70;;;;;;4347452;61;21052;-27
2021/08/22 19:51:21;;;;;;;7.35;6.65;;;27.80;44.70;;;;;;4315095;61;21120;-27
2021/08/22 19:56:22;;;;;;;7.68;6.97;;;27.80;44.70;;;;;;4296085;65;21041;-35
2021/08/22 20:01:22;;;;;;;8.45;7.53;;;27.80;44.70;;;;;;4301188;61;21102;-27
2021/08/22 20:06:23;;;;;;;7.95;7.25;;;27.80;44.70;;;;;;4308296;61;21065;-32
2021/08/22 20:11:24;;;;;;;7.28;6.68;;;27.70;44.70;;;;;;4299389;61;21092;-32
2021/08/22 20:16:25;;;;;;;8.35;7.55;;;27.70;44.70;;;;;;4301933;61;21122;-31
2021/08/22 20:21:25;;;;;;;7.90;7.10;;;27.70;44.60;;;;;;4302335;61;21081;-30
2021/08/22 20:26:26;;;;;;;8.05;7.25;;;27.70;44.60;;;;;;4310210;61;22085;-30
2021/08/22 20:31:27;;;;;;;8.60;6.60;;;27.80;44.70;;;;;;4302692;60;21482;-32
2021/08/22 20:36:28;;;;;;;8.68;7.03;;;27.70;44.60;;;;;;4311763;61;21057;-30
2021/08/22 20:41:30;;;;;;;7.50;6.80;;;27.70;44.60;;;;;;4297799;61;21148;-27
2021/08/22 20:46:31;;;;;;;7.78;6.62;;;27.70;44.70;;;;;;4315464;61;21109;-30
2021/08/22 20:51:32;;;;;;;8.10;7.30;;;27.70;44.60;;;;;;4301082;61;21093;-29
2021/08/22 20:56:32;;;;;;;7.30;6.60;;;27.70;44.70;;;;;;4309288;61;22254;-40
2021/08/22 21:01:33;;;;;;;7.87;7.18;;;27.70;44.80;;;;;;4311046;61;21061;-27
2021/08/22 21:06:34;;;;;;;7.75;6.95;;;27.70;44.70;;;;;;4314126;61;21136;-25
2021/08/22 21:11:35;;;;;;;7.85;7.07;;;27.70;44.70;;;;;;4310766;61;21069;-27
2021/08/22 21:16:36;;;;;;;8.05;7.18;;;27.70;44.70;;;;;;4304343;61;21528;-28
2021/08/22 21:21:37;;;;;;;7.70;6.60;;;27.70;44.70;;;;;;4297386;61;21652;-29
2021/08/22 21:26:37;;;;;;;7.65;6.95;;;27.70;44.80;;;;;;4304387;60;21060;-27
2021/08/22 21:31:39;;;;;;;7.85;7.05;;;27.70;44.80;;;;;;4304895;61;21143;-29
2021/08/22 21:36:40;;;;;;;7.35;6.68;;;27.70;44.80;;;;;;4297541;60;21105;-31
2021/08/22 21:41:43;;;;;;;7.32;6.62;;;27.70;44.90;;;;;;4313722;61;21587;-28
2021/08/22 21:46:43;;;;;;;7.45;6.75;;;27.70;44.90;;;;;;4295356;65;21635;-26
2021/08/22 21:51:44;;;;;;;7.40;6.65;;;27.70;44.90;;;;;;4311399;61;21089;-29
2021/08/22 21:56:45;;;;;;;7.10;6.40;;;27.70;44.90;;;;;;4309844;61;21120;-27
2021/08/22 22:01:46;;;;;;;7.60;6.75;;;27.70;44.90;;;;;;4329512;61;21650;-27
2021/08/22 22:06:47;;;;;;;7.60;6.62;;;27.70;44.90;;;;;;4296038;65;21065;-28
2021/08/22 22:11:48;;;;;;;7.75;6.95;;;27.70;45.00;;;;;;4306638;61;21057;-24
2021/08/22 22:16:49;;;;;;;7.43;6.70;;;27.70;45.00;;;;;;4297193;61;21119;-23
2021/08/22 22:21:50;;;;;;;7.30;6.60;;;27.70;45.00;;;;;;4297384;61;21126;-27
2021/08/22 22:26:50;;;;;;;7.15;6.45;;;27.70;45.00;;;;;;4313405;61;21065;-28
2021/08/22 22:31:51;;;;;;;7.95;6.57;;;27.70;45.10;;;;;;4331365;61;21065;-26
2021/08/22 22:36:52;;;;;;;7.43;6.72;;;27.70;45.10;;;;;;4296637;62;21066;-27
2021/08/22 22:41:53;;;;;;;7.57;6.82;;;27.70;45.10;;;;;;4328781;61;21089;-26
2021/08/22 22:46:54;;;;;;;7.60;6.90;;;27.70;45.80;;;;;;4315078;61;21094;-23
2021/08/22 22:51:55;;;;;;;6.68;6.00;;;27.70;45.10;;;;;;4316474;61;21053;-27
2021/08/22 22:56:55;;;;;;;7.05;6.30;;;27.70;45.10;;;;;;4312239;61;21052;-30
2021/08/22 23:01:56;;;;;;;7.68;6.70;;;27.70;45.20;;;;;;4296076;61;21162;-28
2021/08/22 23:06:59;;;;;;;6.90;6.20;;;27.70;45.80;;;;;;4316972;61;21572;-26
2021/08/22 23:12:00;;;;;;;6.70;6.03;;;27.70;45.20;;;;;;4296188;61;21145;-20
2021/08/22 23:17:03;;;;;;;7.12;6.43;;;27.70;45.20;;;;;;4304484;60;21060;-28
2021/08/22 23:22:04;;;;;;;7.47;6.78;;;27.70;45.20;;;;;;4328623;61;21133;-27
2021/08/22 23:27:05;;;;;;;7.25;6.55;;;27.70;45.20;;;;;;4296187;65;21531;-27
2021/08/22 23:32:07;;;;;;;7.30;6.25;;;27.70;45.20;;;;;;4316405;61;21114;-26
2021/08/22 23:37:08;;;;;;;7.45;6.75;;;27.70;45.20;;;;;;4310877;60;21044;-27
2021/08/22 23:42:09;;;;;;;6.90;6.18;;;27.70;45.30;;;;;;4338449;61;21137;-26
2021/08/22 23:47:10;;;;;;;6.65;6.05;;;27.70;45.30;;;;;;4311739;61;21602;-22
2021/08/22 23:52:13;;;;;;;7.57;6.43;;;27.70;45.30;;;;;;4311964;61;21092;-26
2021/08/22 23:57:14;;;;;;;6.70;6.10;;;27.70;45.40;;;;;;4314037;60;21081;-29
